createdAt,value
2022-11-30T00:00:01.959Z,48.90
2022-11-30T00:03:16.665Z,49.40
2022-11-30T00:06:23.160Z,46.67
2022-11-30T00:09:26.378Z,47.77
2022-11-30T00:12:30.126Z,48.77
2022-11-30T00:15:34.919Z,46.30
2022-11-30T00:18:39.877Z,48.67
2022-11-30T00:21:42.875Z,48.83
2022-11-30T00:24:46.084Z,49.60
2022-11-30T00:27:52.128Z,48.40
2022-11-30T00:30:59.190Z,48.77
2022-11-30T00:34:04.768Z,49.50
2022-11-30T00:37:07.981Z,49.27
2022-11-30T00:40:12.189Z,46.57
2022-11-30T00:43:15.542Z,49.20
2022-11-30T00:46:19.404Z,50.50
2022-11-30T00:49:24.401Z,51.10
2022-11-30T00:52:29.375Z,47.50
2022-11-30T00:55:33.359Z,49.83
2022-11-30T00:58:36.730Z,48.30
2022-11-30T01:01:39.800Z,49.47
2022-11-30T01:04:44.532Z,49.30
2022-11-30T01:07:47.887Z,49.17
2022-11-30T01:10:54.335Z,50.03
2022-11-30T01:13:59.791Z,48.73
2022-11-30T01:17:02.823Z,50.17
2022-11-30T01:20:09.027Z,50.93
2022-11-30T01:23:12.630Z,52.33
2022-11-30T01:26:16.301Z,49.07
2022-11-30T01:29:19.364Z,49.60
2022-11-30T01:32:22.431Z,47.83
2022-11-30T01:35:29.733Z,52.67
2022-11-30T01:38:34.524Z,52.80
2022-11-30T01:41:41.455Z,49.67
2022-11-30T01:45:05.329Z,50.43
2022-11-30T01:48:11.014Z,50.53
2022-11-30T01:51:17.857Z,51.37
2022-11-30T01:54:27.668Z,49.67
2022-11-30T01:57:37.078Z,49.97
2022-11-30T02:00:43.453Z,49.07
2022-11-30T02:03:55.843Z,50.23
2022-11-30T02:07:04.843Z,48.67
2022-11-30T02:10:13.778Z,49.87
2022-11-30T02:13:36.996Z,49.20
2022-11-30T02:16:57.151Z,51.07
2022-11-30T02:20:29.438Z,50.80
2022-11-30T02:24:07.569Z,50.13
2022-11-30T02:27:37.806Z,50.63
2022-11-30T02:30:49.070Z,51.23
2022-11-30T02:33:57.502Z,51.53
2022-11-30T02:37:02.221Z,53.30
2022-11-30T02:40:16.123Z,51.83
2022-11-30T02:43:22.931Z,47.93
2022-11-30T02:46:36.375Z,51.67
2022-11-30T02:49:47.961Z,49.13
2022-11-30T02:52:54.887Z,51.40
2022-11-30T02:55:58.129Z,48.10
2022-11-30T02:59:01.690Z,51.00
2022-11-30T03:02:06.503Z,49.77
2022-11-30T03:05:10.296Z,52.30
2022-11-30T03:08:13.304Z,50.10
2022-11-30T03:11:16.325Z,48.93
2022-11-30T03:14:19.563Z,49.17
2022-11-30T03:17:24.229Z,51.13
2022-11-30T03:20:33.487Z,47.93
2022-11-30T03:23:37.343Z,50.73
2022-11-30T03:26:40.455Z,50.73
2022-11-30T03:29:43.479Z,50.10
2022-11-30T03:32:47.903Z,50.43
2022-11-30T03:35:59.868Z,50.50
2022-11-30T03:39:02.996Z,48.80
2022-11-30T03:42:06.298Z,51.00
2022-11-30T03:45:10.070Z,52.50
2022-11-30T03:48:14.345Z,50.57
2022-11-30T03:51:17.329Z,54.97
2022-11-30T03:54:26.721Z,50.53
2022-11-30T03:57:29.857Z,52.87
2022-11-30T04:00:32.866Z,50.50
2022-11-30T04:03:39.916Z,51.23
2022-11-30T04:06:51.681Z,53.93
2022-11-30T04:09:57.760Z,50.80
2022-11-30T04:13:01.125Z,53.17
2022-11-30T04:16:05.724Z,54.77
2022-11-30T04:19:10.075Z,53.10
2022-11-30T04:22:15.951Z,53.73
2022-11-30T04:25:19.045Z,52.83
2022-11-30T04:28:22.224Z,49.63
2022-11-30T04:31:25.290Z,51.73
2022-11-30T04:34:31.578Z,50.67
2022-11-30T04:37:34.582Z,53.27
2022-11-30T04:40:41.301Z,52.43
2022-11-30T04:43:44.318Z,52.03
2022-11-30T04:46:47.297Z,51.90
2022-11-30T04:49:51.667Z,51.27
2022-11-30T04:52:54.836Z,52.67
2022-11-30T04:55:57.912Z,50.97
2022-11-30T04:59:02.792Z,54.33
2022-11-30T05:02:06.204Z,52.67
2022-11-30T05:05:11.864Z,52.17
2022-11-30T05:08:14.867Z,50.53
2022-11-30T05:11:17.863Z,50.00
2022-11-30T05:14:20.798Z,54.03
2022-11-30T05:17:23.822Z,51.80
2022-11-30T05:20:28.169Z,51.37
2022-11-30T05:23:31.103Z,53.30
2022-11-30T05:26:34.437Z,54.73
2022-11-30T05:29:37.617Z,54.80
2022-11-30T05:32:40.636Z,53.87
2022-11-30T05:35:45.226Z,51.93
2022-11-30T05:38:49.377Z,57.33
2022-11-30T05:41:52.518Z,62.23
2022-11-30T05:44:55.983Z,54.17
2022-11-30T05:47:59.066Z,70.67
2022-11-30T05:51:08.682Z,51.87
2022-11-30T05:54:11.705Z,51.57
2022-11-30T05:57:14.759Z,52.83
2022-11-30T06:00:19.039Z,52.87
2022-11-30T06:03:22.100Z,52.33
2022-11-30T06:06:26.431Z,53.13
2022-11-30T06:09:30.126Z,51.33
2022-11-30T06:12:33.140Z,50.00
2022-11-30T06:15:37.730Z,50.27
2022-11-30T06:18:40.887Z,50.13
2022-11-30T06:21:45.336Z,49.23
2022-11-30T06:24:48.585Z,49.80
2022-11-30T06:27:52.178Z,48.73
2022-11-30T06:30:59.724Z,50.87
2022-11-30T06:34:02.846Z,47.67
2022-11-30T06:37:07.200Z,52.07
2022-11-30T06:40:13.088Z,51.47
2022-11-30T06:43:16.136Z,48.93
2022-11-30T06:46:19.223Z,51.83
2022-11-30T06:49:22.656Z,49.13
2022-11-30T06:52:27.313Z,51.37
2022-11-30T06:55:32.764Z,50.13
2022-11-30T06:58:36.929Z,48.10
2022-11-30T07:01:39.911Z,50.10
2022-11-30T07:04:43.470Z,50.97
2022-11-30T07:07:48.062Z,50.10
2022-11-30T07:10:51.392Z,51.27
2022-11-30T07:13:54.365Z,49.33
2022-11-30T07:16:57.766Z,49.50
2022-11-30T07:20:00.731Z,49.77
2022-11-30T07:23:19.468Z,49.67
2022-11-30T07:26:22.952Z,50.17
2022-11-30T07:29:25.921Z,52.90
2022-11-30T07:32:28.899Z,48.80
2022-11-30T07:35:31.830Z,49.87
2022-11-30T07:38:36.089Z,50.73
2022-11-30T07:41:40.239Z,48.27
2022-11-30T07:44:43.284Z,48.57
2022-11-30T07:47:46.339Z,48.70
2022-11-30T07:50:50.253Z,50.93
2022-11-30T07:53:57.707Z,46.87
2022-11-30T07:57:00.820Z,49.37
2022-11-30T08:00:05.396Z,50.10
2022-11-30T08:03:15.130Z,50.20
2022-11-30T08:06:20.946Z,52.33
2022-11-30T08:09:25.221Z,49.60
2022-11-30T08:12:28.196Z,49.47
2022-11-30T08:15:33.289Z,50.30
2022-11-30T08:18:37.259Z,48.13
2022-11-30T08:21:40.197Z,49.27
2022-11-30T08:24:44.434Z,50.77
2022-11-30T08:27:47.351Z,50.23
2022-11-30T08:30:50.285Z,50.13
2022-11-30T08:33:57.847Z,51.90
2022-11-30T08:37:00.912Z,51.17
2022-11-30T08:40:06.987Z,47.37
2022-11-30T08:43:12.476Z,47.27
2022-11-30T08:49:40.562Z,52.63
2022-11-30T08:52:43.704Z,49.33
2022-11-30T08:55:58.580Z,49.50
2022-11-30T08:59:01.569Z,50.73
2022-11-30T09:02:05.630Z,49.50
2022-11-30T09:05:09.260Z,48.27
2022-11-30T09:08:12.400Z,50.93
2022-11-30T09:11:19.087Z,48.50
2022-11-30T09:14:22.415Z,46.47
2022-11-30T09:17:25.425Z,46.70
2022-11-30T09:20:28.430Z,48.30
2022-11-30T09:23:31.956Z,48.00
2022-11-30T09:26:40.804Z,48.13
2022-11-30T09:29:43.859Z,48.57
2022-11-30T09:32:46.893Z,47.80
2022-11-30T09:35:57.645Z,49.83
2022-11-30T09:39:04.403Z,49.30
2022-11-30T09:42:30.016Z,47.27
2022-11-30T09:45:38.983Z,48.27
2022-11-30T09:48:55.307Z,50.50
2022-11-30T09:52:03.482Z,48.30
2022-11-30T09:55:11.276Z,46.50
2022-11-30T09:58:28.671Z,48.13
2022-11-30T10:01:32.956Z,49.63
2022-11-30T10:04:37.230Z,50.17
2022-11-30T10:07:57.827Z,46.43
2022-11-30T10:11:25.705Z,47.67
2022-11-30T10:14:58.715Z,46.97
2022-11-30T10:18:17.261Z,47.97
2022-11-30T10:21:37.838Z,48.07
2022-11-30T10:25:01.516Z,47.57
2022-11-30T10:28:44.945Z,47.00
2022-11-30T10:31:44.675Z,48.23
2022-11-30T10:34:52.252Z,47.83
2022-11-30T10:37:57.958Z,47.97
2022-11-30T10:41:10.628Z,48.77
2022-11-30T10:44:19.859Z,46.77
2022-11-30T10:47:29.460Z,49.07
2022-11-30T10:50:32.653Z,48.67
2022-11-30T10:53:35.754Z,49.40
2022-11-30T10:56:38.918Z,48.70
2022-11-30T10:59:46.276Z,47.57
2022-11-30T11:02:51.586Z,48.80
2022-11-30T11:06:13.783Z,47.23
2022-11-30T11:09:53.179Z,46.90
2022-11-30T11:12:57.160Z,46.80
2022-11-30T11:16:02.263Z,47.97
2022-11-30T11:19:33.256Z,49.27
2022-11-30T11:22:38.243Z,52.03
2022-11-30T11:25:43.152Z,50.57
2022-11-30T11:28:50.339Z,49.17
2022-11-30T11:31:53.279Z,48.17
2022-11-30T11:34:58.796Z,50.77
2022-11-30T11:38:01.818Z,51.80
2022-11-30T11:41:09.868Z,51.13
2022-11-30T11:44:22.262Z,50.43
2022-11-30T11:47:28.309Z,49.23
2022-11-30T11:51:05.618Z,50.97
2022-11-30T11:53:59.866Z,53.03
2022-11-30T11:57:03.651Z,50.00
2022-11-30T12:00:16.862Z,51.03
2022-11-30T12:03:29.508Z,47.90
2022-11-30T12:06:35.589Z,48.67
2022-11-30T12:09:45.664Z,50.20
2022-11-30T12:12:53.446Z,51.60
2022-11-30T12:16:08.730Z,53.37
2022-11-30T12:19:16.592Z,53.07
2022-11-30T12:22:44.434Z,53.73
2022-11-30T12:25:56.120Z,52.33
2022-11-30T12:29:24.231Z,53.73
2022-11-30T12:32:44.190Z,55.43
2022-11-30T12:36:00.198Z,53.40
2022-11-30T12:39:10.839Z,56.60
2022-11-30T12:42:20.534Z,57.03
2022-11-30T12:45:30.711Z,58.30
2022-11-30T12:48:45.836Z,55.97
2022-11-30T12:52:00.298Z,55.87
2022-11-30T12:55:20.898Z,59.23
2022-11-30T12:58:32.048Z,55.40
2022-11-30T13:01:57.528Z,58.17
2022-11-30T13:05:05.261Z,58.00
2022-11-30T13:08:20.065Z,54.90
2022-11-30T13:11:30.878Z,58.50
2022-11-30T13:14:35.844Z,52.97
2022-11-30T13:17:39.365Z,55.20
2022-11-30T13:20:54.313Z,54.47
2022-11-30T13:24:07.129Z,54.87
2022-11-30T13:27:19.167Z,55.73
2022-11-30T13:30:39.904Z,52.47
2022-11-30T13:33:57.834Z,55.87
2022-11-30T13:37:07.106Z,54.17
2022-11-30T13:40:22.334Z,53.13
2022-11-30T13:43:30.569Z,54.43
2022-11-30T13:46:33.681Z,54.23
2022-11-30T13:49:37.642Z,54.43
2022-11-30T13:53:20.299Z,54.47
2022-11-30T13:56:35.902Z,54.83
2022-11-30T13:59:47.577Z,55.00
2022-11-30T14:02:54.429Z,54.17
2022-11-30T14:05:58.748Z,56.93
2022-11-30T14:09:01.714Z,52.90
2022-11-30T14:12:53.829Z,50.57
2022-11-30T14:16:01.468Z,49.03
2022-11-30T14:19:07.840Z,54.83
2022-11-30T14:22:12.789Z,55.13
2022-11-30T14:25:18.327Z,56.77
2022-11-30T14:28:25.498Z,58.93
2022-11-30T14:31:36.086Z,55.37
2022-11-30T14:34:43.784Z,58.43
2022-11-30T14:37:54.005Z,59.03
2022-11-30T14:40:57.891Z,57.37
2022-11-30T14:44:03.868Z,61.13
2022-11-30T14:47:23.665Z,60.23
2022-11-30T14:50:27.896Z,63.80
2022-11-30T14:53:37.480Z,62.40
2022-11-30T14:56:47.206Z,62.97
2022-11-30T14:59:53.115Z,58.80
2022-11-30T15:02:57.495Z,56.70
2022-11-30T15:06:03.669Z,60.93
2022-11-30T15:09:14.952Z,57.90
2022-11-30T15:12:21.825Z,55.63
2022-11-30T15:15:27.826Z,57.27
2022-11-30T15:18:32.139Z,57.67
2022-11-30T15:21:35.103Z,51.50
2022-11-30T15:24:38.076Z,58.03
2022-11-30T15:27:42.881Z,56.27
2022-11-30T15:30:54.852Z,54.13
2022-11-30T15:33:59.269Z,53.30
2022-11-30T15:37:02.419Z,53.93
2022-11-30T15:40:10.747Z,51.30
2022-11-30T15:43:22.083Z,53.00
2022-11-30T15:46:32.531Z,52.10
2022-11-30T15:49:37.348Z,51.67
2022-11-30T15:52:45.474Z,54.37
2022-11-30T15:55:51.224Z,51.53
2022-11-30T15:59:04.646Z,50.73
2022-11-30T16:02:23.743Z,51.23
2022-11-30T16:05:28.111Z,51.60
2022-11-30T16:08:31.689Z,50.80
2022-11-30T16:11:36.445Z,52.03
2022-11-30T16:14:39.426Z,49.30
2022-11-30T16:17:42.734Z,50.57
2022-11-30T16:20:51.082Z,51.67
2022-11-30T16:23:54.210Z,49.20
2022-11-30T16:26:57.365Z,50.63
2022-11-30T16:30:00.659Z,49.47
2022-11-30T16:33:03.844Z,50.17
2022-11-30T16:36:15.418Z,50.90
2022-11-30T16:39:18.403Z,50.73
2022-11-30T16:42:21.617Z,49.37
2022-11-30T16:45:27.147Z,49.50
2022-11-30T16:48:30.812Z,50.33
2022-11-30T16:51:36.116Z,52.00
2022-11-30T16:54:39.140Z,50.37
2022-11-30T16:57:42.533Z,53.50
2022-11-30T17:00:45.681Z,52.87
2022-11-30T17:03:54.347Z,52.30
2022-11-30T17:07:02.861Z,52.37
2022-11-30T17:10:07.862Z,49.43
2022-11-30T17:13:14.951Z,48.20
2022-11-30T17:16:17.959Z,63.58
2022-11-30T17:19:24.030Z,55.40
2022-11-30T17:22:28.282Z,54.37
2022-11-30T17:25:31.447Z,53.73
2022-11-30T17:28:34.498Z,56.00
2022-11-30T17:31:37.843Z,51.10
2022-11-30T17:34:41.836Z,49.20
2022-11-30T17:37:46.283Z,53.40
2022-11-30T17:40:49.368Z,50.50
2022-11-30T17:43:52.719Z,54.63
2022-11-30T17:46:56.348Z,51.07
2022-11-30T17:49:59.356Z,51.30
2022-11-30T17:53:04.823Z,50.30
2022-11-30T17:56:10.657Z,53.20
2022-11-30T17:59:13.687Z,51.57
2022-11-30T18:02:16.707Z,51.83
2022-11-30T18:05:20.373Z,52.43
2022-11-30T18:08:24.917Z,51.70
2022-11-30T18:11:28.217Z,52.27
2022-11-30T18:14:31.171Z,52.63
2022-11-30T18:17:37.412Z,49.20
2022-11-30T18:20:40.515Z,50.77
2022-11-30T18:23:45.050Z,50.27
2022-11-30T18:26:48.160Z,46.73
2022-11-30T18:29:52.078Z,46.60
2022-11-30T18:32:55.003Z,47.43
2022-11-30T18:35:58.833Z,49.63
2022-11-30T18:39:03.314Z,46.33
2022-11-30T18:42:06.283Z,46.37
2022-11-30T18:45:10.795Z,48.20
2022-11-30T18:48:13.805Z,47.87
2022-11-30T18:51:19.348Z,45.37
2022-11-30T18:54:25.157Z,50.17
2022-11-30T18:57:28.162Z,49.47
2022-11-30T19:00:31.164Z,47.03
2022-11-30T19:03:34.097Z,49.17
2022-11-30T19:06:38.668Z,47.20
2022-11-30T19:09:43.434Z,47.47
2022-11-30T19:12:46.677Z,45.93
2022-11-30T19:15:50.980Z,45.60
2022-11-30T19:18:54.573Z,47.23
2022-11-30T19:21:58.231Z,46.37
2022-11-30T19:25:02.574Z,51.17
2022-11-30T19:28:05.977Z,48.63
2022-11-30T19:31:12.061Z,46.67
2022-11-30T19:34:15.152Z,46.93
2022-11-30T19:37:18.124Z,47.00
2022-11-30T19:40:22.406Z,46.73
2022-11-30T19:43:25.484Z,47.60
2022-11-30T19:46:29.037Z,46.27
2022-11-30T19:49:32.158Z,44.17
2022-11-30T19:52:35.137Z,43.70
2022-11-30T19:55:41.167Z,44.90
2022-11-30T19:58:45.938Z,46.10
2022-11-30T20:01:48.953Z,43.80
2022-11-30T20:04:52.109Z,48.90
2022-11-30T20:07:55.163Z,48.23
2022-11-30T20:10:59.713Z,47.23
2022-11-30T20:14:02.888Z,46.43
2022-11-30T20:17:06.078Z,45.43
2022-11-30T20:20:11.540Z,47.07
2022-11-30T20:23:14.548Z,46.67
2022-11-30T20:26:21.035Z,46.00
2022-11-30T20:29:24.131Z,48.23
2022-11-30T20:32:27.573Z,44.70
2022-11-30T20:35:31.885Z,45.43
2022-11-30T20:38:35.051Z,45.50
2022-11-30T20:41:41.301Z,47.00
2022-11-30T20:44:44.596Z,44.83
2022-11-30T20:47:47.885Z,46.97
2022-11-30T20:51:14.166Z,48.73
2022-11-30T20:54:14.829Z,48.37
2022-11-30T20:57:19.141Z,44.83
2022-11-30T21:00:22.222Z,48.17
2022-11-30T21:03:25.515Z,44.70
2022-11-30T21:06:29.288Z,45.43
2022-11-30T21:09:32.229Z,46.70
2022-11-30T21:12:36.811Z,47.40
2022-11-30T21:15:39.936Z,44.93
2022-11-30T21:18:45.679Z,46.17
2022-11-30T21:21:48.742Z,46.10
2022-11-30T21:24:52.047Z,44.23
2022-11-30T21:27:56.311Z,45.30
2022-11-30T21:31:22.624Z,44.97
2022-11-30T21:34:31.241Z,44.30
2022-11-30T21:37:34.203Z,42.77
2022-11-30T21:40:37.329Z,43.47
2022-11-30T21:43:42.502Z,46.37
2022-11-30T21:46:47.376Z,44.40
2022-11-30T21:49:50.469Z,42.43
2022-11-30T21:52:53.415Z,43.00
2022-11-30T21:55:57.067Z,43.37
2022-11-30T21:59:02.556Z,43.90
2022-11-30T22:02:05.961Z,43.77
2022-11-30T22:05:09.626Z,45.07
2022-11-30T22:08:12.546Z,47.00
2022-11-30T22:11:17.901Z,47.13
2022-11-30T22:14:22.272Z,43.83
2022-11-30T22:17:25.783Z,42.60
2022-11-30T22:20:28.762Z,42.17
2022-11-30T22:23:32.696Z,41.07
2022-11-30T22:26:38.350Z,41.30
2022-11-30T22:29:42.598Z,39.27
2022-11-30T22:32:46.408Z,41.40
2022-11-30T22:35:49.387Z,42.13
2022-11-30T22:38:55.786Z,41.63
2022-11-30T22:41:58.824Z,42.07
2022-11-30T22:45:03.089Z,42.43
2022-11-30T22:48:06.764Z,41.10
2022-11-30T22:51:13.707Z,45.00
2022-11-30T22:54:17.000Z,41.87
2022-11-30T22:57:20.045Z,42.63
2022-11-30T23:00:24.857Z,44.07
2022-11-30T23:03:28.758Z,43.30
2022-11-30T23:06:32.621Z,44.27
2022-11-30T23:09:35.565Z,43.53
2022-11-30T23:12:58.323Z,44.23
2022-11-30T23:16:04.657Z,44.63
2022-11-30T23:19:08.765Z,43.43
2022-11-30T23:22:11.717Z,46.40
2022-11-30T23:25:14.637Z,43.70
2022-11-30T23:28:18.235Z,44.93
2022-11-30T23:31:34.287Z,46.70
2022-11-30T23:34:41.657Z,45.90
2022-11-30T23:37:44.718Z,47.23
2022-11-30T23:40:47.774Z,43.93
2022-11-30T23:43:50.791Z,42.60
2022-11-30T23:46:55.085Z,42.77
2022-11-30T23:49:58.104Z,42.63
2022-11-30T23:53:01.019Z,40.03
2022-11-30T23:56:06.776Z,42.53
2022-11-30T23:59:09.751Z,42.10
